KDXR/DXR METAR and TAF weather

Enter ICAO airport designator
Station Type Date Time Source
KDXR METAR 2019/02/23 16:53 UTC NOAA

KDXR 231653Z 00000KT 10SM CLR 02/M07 A3045 RMK AO2 SLP315 T00221072


Station Type Date Time Source
KDXR Decoded METAR 2019/02/23 16:53 UTC NOAA

DANBURY MUNICIPAL AIRPORT, CT, United States (KDXR) 41-22N 073-29W 139M
Feb 23, 2019 - 11:53 AM EST / 2019.02.23 1653 UTC
Wind: Calm:0
Visibility: 10 mile(s):0
Sky conditions: clear
Temperature: 36.0 F (2.2 C)
Dew Point: 19.0 F (-7.2 C)
Relative Humidity: 49%
Pressure (altimeter): 30.45 in. Hg (1031 hPa)
ob: KDXR 231653Z 00000KT 10SM CLR 02/M07 A3045 RMK AO2 SLP315 T00221072
cycle: 17

Station Type Date Time Source
KDXR TAF UTC NOAA

Error!


Example: see airport list